createdAt,value
2022-10-20T00:00:35.240Z,24.27
2022-10-20T00:03:04.333Z,24.21
2022-10-20T00:05:33.593Z,24.17
2022-10-20T00:08:03.075Z,24.24
2022-10-20T00:10:32.918Z,24.09
2022-10-20T00:13:02.022Z,24.19
2022-10-20T00:15:31.165Z,24.27
2022-10-20T00:18:00.163Z,24.27
2022-10-20T00:20:29.005Z,24.26
2022-10-20T00:22:58.193Z,24.28
2022-10-20T00:25:27.138Z,24.40
2022-10-20T00:27:56.400Z,24.38
2022-10-20T00:30:25.743Z,24.42
2022-10-20T00:32:55.161Z,24.46
2022-10-20T00:35:24.394Z,24.52
2022-10-20T00:37:54.068Z,24.59
2022-10-20T00:40:23.233Z,24.53
2022-10-20T00:42:52.269Z,24.58
2022-10-20T00:45:23.583Z,24.70
2022-10-20T00:48:00.661Z,24.73
2022-10-20T00:50:34.256Z,24.73
2022-10-20T00:53:04.263Z,24.63
2022-10-20T00:55:36.670Z,24.69
2022-10-20T00:58:06.407Z,24.61
2022-10-20T01:00:35.933Z,24.61
2022-10-20T01:03:08.238Z,24.59
2022-10-20T01:05:39.467Z,24.55
2022-10-20T01:08:11.852Z,24.52
2022-10-20T01:11:03.213Z,24.54
2022-10-20T01:13:58.960Z,24.69
2022-10-20T01:16:31.337Z,24.37
2022-10-20T01:19:08.381Z,24.67
2022-10-20T01:22:09.226Z,24.53
2022-10-20T01:25:20.611Z,24.60
2022-10-20T01:28:13.956Z,24.63
2022-10-20T01:30:51.350Z,24.53
2022-10-20T01:33:51.616Z,24.65
2022-10-20T01:36:27.872Z,24.53
2022-10-20T01:39:01.144Z,24.58
2022-10-20T01:41:39.199Z,24.55
2022-10-20T01:44:13.590Z,24.68
2022-10-20T01:46:46.064Z,24.62
2022-10-20T01:49:16.780Z,24.64
2022-10-20T01:51:46.532Z,24.70
2022-10-20T01:54:28.332Z,24.81
2022-10-20T01:57:30.458Z,24.96
2022-10-20T02:00:13.184Z,24.95
2022-10-20T02:03:03.565Z,24.95
2022-10-20T02:06:26.904Z,25.04
2022-10-20T02:09:25.586Z,25.04
2022-10-20T02:12:22.096Z,25.07
2022-10-20T02:14:57.393Z,24.95
2022-10-20T02:17:27.787Z,25.06
2022-10-20T02:19:58.798Z,25.07
2022-10-20T02:22:28.876Z,25.11
2022-10-20T02:24:58.482Z,25.22
2022-10-20T02:27:36.102Z,25.40
2022-10-20T02:30:10.362Z,25.32
2022-10-20T02:32:43.080Z,25.45
2022-10-20T02:35:17.233Z,25.51
2022-10-20T02:37:47.289Z,25.44
2022-10-20T02:40:16.989Z,25.54
2022-10-20T02:42:46.865Z,25.52
2022-10-20T02:45:16.447Z,25.64
2022-10-20T02:47:46.019Z,25.68
2022-10-20T02:50:15.164Z,25.76
2022-10-20T02:52:44.877Z,25.84
2022-10-20T02:55:14.434Z,25.86
2022-10-20T02:57:44.190Z,25.92
2022-10-20T03:00:15.323Z,26.10
2022-10-20T03:02:44.655Z,26.07
2022-10-20T03:05:14.279Z,26.08
2022-10-20T03:10:13.490Z,26.20
2022-10-20T03:12:43.444Z,26.25
2022-10-20T03:15:13.303Z,26.34
2022-10-20T03:17:43.187Z,26.35
2022-10-20T03:20:13.136Z,26.43
2022-10-20T03:22:42.989Z,26.41
2022-10-20T03:25:12.588Z,26.66
2022-10-20T03:27:41.784Z,26.62
2022-10-20T03:30:12.048Z,26.84
2022-10-20T03:32:41.467Z,26.77
2022-10-20T03:35:12.403Z,26.62
2022-10-20T03:37:41.774Z,26.90
2022-10-20T03:40:11.502Z,26.78
2022-10-20T03:42:41.560Z,26.72
2022-10-20T03:45:13.760Z,26.78
2022-10-20T03:47:46.073Z,26.91
2022-10-20T03:50:15.793Z,26.76
2022-10-20T03:52:44.972Z,26.96
2022-10-20T03:55:15.405Z,26.93
2022-10-20T03:57:44.795Z,26.94
2022-10-20T04:00:14.842Z,26.90
2022-10-20T04:02:47.630Z,26.98
2022-10-20T04:05:20.026Z,27.18
2022-10-20T04:07:51.096Z,27.25
2022-10-20T04:10:20.799Z,27.37
2022-10-20T04:12:49.988Z,27.52
2022-10-20T04:15:20.070Z,27.56
2022-10-20T04:17:50.608Z,27.63
2022-10-20T04:20:20.178Z,27.72
2022-10-20T04:22:49.671Z,27.80
2022-10-20T04:25:19.670Z,27.86
2022-10-20T04:27:49.350Z,27.89
2022-10-20T04:30:19.273Z,27.92
2022-10-20T04:32:49.114Z,27.89
2022-10-20T04:35:19.083Z,28.09
2022-10-20T04:37:48.540Z,28.19
2022-10-20T04:40:17.960Z,28.20
2022-10-20T04:42:47.767Z,28.22
2022-10-20T04:45:17.077Z,28.28
2022-10-20T04:47:46.962Z,28.42
2022-10-20T04:50:27.143Z,28.45
2022-10-20T04:53:11.385Z,28.51
2022-10-20T04:55:40.685Z,28.58
2022-10-20T04:58:09.724Z,28.53
2022-10-20T05:00:39.895Z,28.51
2022-10-20T05:03:08.984Z,28.40
2022-10-20T05:05:38.219Z,28.58
2022-10-20T05:08:07.199Z,28.52
2022-10-20T05:10:36.824Z,28.59
2022-10-20T05:13:05.827Z,28.81
2022-10-20T05:15:35.155Z,28.72
2022-10-20T05:18:07.265Z,28.60
2022-10-20T05:20:41.311Z,28.76
2022-10-20T05:23:15.529Z,28.68
2022-10-20T05:25:44.530Z,28.52
2022-10-20T05:28:14.657Z,28.72
2022-10-20T05:30:43.941Z,28.80
2022-10-20T05:33:13.085Z,28.93
2022-10-20T05:35:41.923Z,28.74
2022-10-20T05:38:11.310Z,29.06
2022-10-20T05:40:40.729Z,29.19
2022-10-20T05:43:10.779Z,29.42
2022-10-20T05:45:40.568Z,29.35
2022-10-20T05:48:09.743Z,29.49
2022-10-20T05:50:39.645Z,29.43
2022-10-20T05:53:08.942Z,29.62
2022-10-20T05:55:37.955Z,29.49
2022-10-20T05:58:07.155Z,29.49
2022-10-20T06:00:42.987Z,29.63
2022-10-20T06:03:13.927Z,29.69
2022-10-20T06:05:46.657Z,29.87
2022-10-20T06:08:16.307Z,30.12
2022-10-20T06:10:45.627Z,30.18
2022-10-20T06:13:15.194Z,30.12
2022-10-20T06:15:44.616Z,30.33
2022-10-20T06:18:13.688Z,30.41
2022-10-20T06:20:43.370Z,30.45
2022-10-20T06:23:13.207Z,30.49
2022-10-20T06:25:44.815Z,30.56
2022-10-20T06:28:14.099Z,30.40
2022-10-20T06:30:43.324Z,30.37
2022-10-20T06:33:15.953Z,30.31
2022-10-20T06:35:45.299Z,30.48
2022-10-20T06:38:14.244Z,30.57
2022-10-20T06:40:43.473Z,30.57
2022-10-20T06:43:12.496Z,30.70
2022-10-20T06:45:41.709Z,30.80
2022-10-20T06:48:11.007Z,30.79
2022-10-20T06:50:40.277Z,30.92
2022-10-20T06:53:09.351Z,30.77
2022-10-20T06:55:38.867Z,30.29
2022-10-20T06:58:08.237Z,30.58
2022-10-20T07:00:37.617Z,30.29
2022-10-20T07:03:06.870Z,30.32
2022-10-20T07:05:37.102Z,30.65
2022-10-20T07:08:27.043Z,30.61
2022-10-20T07:11:07.858Z,30.43
2022-10-20T07:13:38.665Z,30.01
2022-10-20T07:16:09.828Z,29.84
2022-10-20T07:18:39.317Z,29.60
2022-10-20T07:21:19.763Z,29.69
2022-10-20T07:23:50.624Z,29.56
2022-10-20T07:26:25.884Z,29.80
2022-10-20T07:28:58.587Z,29.71
2022-10-20T07:31:33.110Z,29.56
2022-10-20T07:36:53.071Z,29.54
2022-10-20T07:39:24.315Z,29.08
2022-10-20T07:41:53.916Z,29.49
2022-10-20T07:44:25.705Z,29.43
2022-10-20T07:46:58.376Z,28.94
2022-10-20T07:49:45.560Z,29.20
2022-10-20T07:52:17.558Z,29.09
2022-10-20T07:54:47.973Z,29.18
2022-10-20T07:57:17.717Z,29.36
2022-10-20T07:59:47.018Z,29.18
2022-10-20T08:02:18.728Z,29.23
2022-10-20T08:04:48.365Z,29.13
2022-10-20T08:07:18.018Z,29.13
2022-10-20T08:09:48.412Z,29.35
2022-10-20T08:12:17.902Z,28.79
2022-10-20T08:15:01.710Z,28.84
2022-10-20T08:17:32.609Z,28.80
2022-10-20T08:20:26.414Z,28.99
2022-10-20T08:23:00.268Z,28.94
2022-10-20T08:25:30.234Z,29.05
2022-10-20T08:27:59.868Z,28.99
2022-10-20T08:30:29.239Z,28.80
2022-10-20T08:32:58.524Z,29.01
2022-10-20T08:35:28.249Z,28.89
2022-10-20T08:37:57.333Z,28.64
2022-10-20T08:40:34.234Z,28.43
2022-10-20T08:43:32.612Z,28.59
2022-10-20T08:46:37.583Z,28.63
2022-10-20T08:49:15.309Z,28.59
2022-10-20T08:51:44.616Z,28.93
2022-10-20T08:54:16.222Z,28.55
2022-10-20T08:56:46.208Z,28.72
2022-10-20T08:59:39.173Z,28.47
2022-10-20T09:02:21.045Z,28.65
2022-10-20T09:05:02.968Z,28.45
2022-10-20T09:07:52.340Z,28.31
2022-10-20T09:10:39.602Z,28.51
2022-10-20T09:16:42.225Z,28.72
2022-10-20T09:22:34.893Z,28.39
2022-10-20T09:25:05.992Z,28.65
2022-10-20T09:30:30.447Z,28.08
2022-10-20T09:33:00.012Z,28.17
2022-10-20T09:35:37.765Z,28.15
2022-10-20T09:38:12.800Z,28.34
2022-10-20T09:40:56.530Z,28.36
2022-10-20T09:43:28.312Z,28.29
2022-10-20T09:46:06.230Z,28.20
2022-10-20T09:48:48.814Z,28.46
2022-10-20T09:51:25.831Z,28.25
2022-10-20T09:54:00.855Z,28.28
2022-10-20T09:56:41.918Z,28.26
2022-10-20T09:59:37.841Z,28.31
2022-10-20T10:02:16.187Z,28.20
2022-10-20T10:04:50.758Z,28.43
2022-10-20T10:07:29.450Z,28.37
2022-10-20T10:10:21.828Z,28.35
2022-10-20T10:13:13.558Z,28.27
2022-10-20T10:15:42.959Z,28.16
2022-10-20T10:18:24.515Z,28.04
2022-10-20T10:21:08.364Z,28.47
2022-10-20T10:26:55.153Z,28.22
2022-10-20T10:29:32.840Z,28.04
2022-10-20T10:32:05.042Z,27.76
2022-10-20T10:34:52.340Z,27.92
2022-10-20T10:39:51.294Z,27.76
2022-10-20T10:42:50.725Z,27.79
2022-10-20T10:45:40.910Z,28.03
2022-10-20T10:48:33.583Z,28.02
2022-10-20T10:51:12.072Z,27.67
2022-10-20T10:53:54.482Z,28.05
2022-10-20T10:56:45.241Z,28.05
2022-10-20T10:59:42.846Z,27.98
2022-10-20T11:02:49.416Z,27.90
2022-10-20T11:05:21.799Z,27.71
2022-10-20T11:08:09.144Z,27.85
2022-10-20T11:10:44.537Z,27.73
2022-10-20T11:13:26.212Z,27.63
2022-10-20T11:16:14.436Z,27.65
2022-10-20T11:19:09.291Z,27.72
2022-10-20T11:21:58.501Z,27.64
2022-10-20T11:24:37.569Z,27.38
2022-10-20T11:27:17.153Z,27.62
2022-10-20T11:30:09.194Z,27.51
2022-10-20T11:33:36.926Z,27.64
2022-10-20T11:36:34.341Z,27.38
2022-10-20T11:39:05.379Z,27.34
2022-10-20T11:41:50.198Z,26.99
2022-10-20T11:44:45.797Z,27.13
2022-10-20T11:47:22.686Z,26.90
2022-10-20T11:49:53.679Z,26.74
2022-10-20T11:53:02.931Z,26.91
2022-10-20T11:55:53.634Z,26.97
2022-10-20T11:58:44.643Z,27.00
2022-10-20T12:01:36.867Z,26.87
2022-10-20T12:04:27.546Z,26.83
2022-10-20T12:07:32.822Z,26.56
2022-10-20T12:10:23.222Z,26.51
2022-10-20T12:13:35.201Z,26.54
2022-10-20T12:16:23.201Z,26.51
2022-10-20T12:19:08.062Z,26.23
2022-10-20T12:22:05.712Z,26.17
2022-10-20T12:24:43.571Z,26.15
2022-10-20T12:27:13.058Z,26.15
2022-10-20T12:29:45.008Z,26.19
2022-10-20T12:32:37.766Z,25.91
2022-10-20T12:35:12.467Z,25.83
2022-10-20T12:37:44.768Z,25.65
2022-10-20T12:40:16.224Z,25.78
2022-10-20T12:42:50.799Z,25.61
2022-10-20T12:45:19.942Z,25.66
2022-10-20T12:48:02.314Z,25.52
2022-10-20T12:50:50.428Z,25.67
2022-10-20T12:53:19.700Z,25.42
2022-10-20T12:56:20.011Z,25.60
2022-10-20T12:59:25.754Z,25.67
2022-10-20T13:02:14.903Z,25.45
2022-10-20T13:05:15.811Z,25.47
2022-10-20T13:07:48.011Z,25.38
2022-10-20T13:10:32.352Z,25.34
2022-10-20T13:13:04.409Z,25.30
2022-10-20T13:15:44.531Z,25.32
2022-10-20T13:18:14.001Z,25.32
2022-10-20T13:21:24.497Z,25.30
2022-10-20T13:24:23.546Z,25.20
2022-10-20T13:26:57.315Z,25.17
2022-10-20T13:29:41.625Z,25.05
2022-10-20T13:32:35.353Z,25.16
2022-10-20T13:35:24.198Z,24.97
2022-10-20T13:38:08.729Z,24.85
2022-10-20T13:40:51.777Z,25.07
2022-10-20T13:43:28.688Z,24.76
2022-10-20T13:46:29.164Z,24.95
2022-10-20T13:49:31.054Z,24.98
2022-10-20T13:52:08.342Z,24.85
2022-10-20T13:54:45.750Z,24.77
2022-10-20T13:57:34.351Z,24.58
2022-10-20T14:00:19.272Z,24.68
2022-10-20T14:03:07.712Z,24.79
2022-10-20T14:05:40.593Z,24.66
2022-10-20T14:08:12.084Z,24.62
2022-10-20T14:10:59.687Z,24.70
2022-10-20T14:13:35.652Z,24.87
2022-10-20T14:16:17.869Z,24.53
2022-10-20T14:19:06.299Z,24.61
2022-10-20T14:21:52.364Z,24.51
2022-10-20T14:24:34.541Z,24.73
2022-10-20T14:27:06.637Z,24.58
2022-10-20T14:29:40.841Z,24.79
2022-10-20T14:32:25.051Z,24.43
2022-10-20T14:35:00.774Z,24.49
2022-10-20T14:37:34.606Z,24.33
2022-10-20T14:40:19.254Z,24.07
2022-10-20T14:42:48.816Z,24.22
2022-10-20T14:45:27.094Z,24.30
2022-10-20T14:47:59.252Z,24.53
2022-10-20T14:50:42.049Z,24.62
2022-10-20T14:53:34.861Z,24.44
2022-10-20T14:56:04.269Z,24.71
2022-10-20T14:58:58.363Z,24.67
2022-10-20T15:01:30.701Z,24.49
2022-10-20T15:04:27.583Z,24.41
2022-10-20T15:07:33.934Z,24.46
2022-10-20T15:10:15.281Z,24.46
2022-10-20T15:12:49.612Z,24.22
2022-10-20T15:15:21.571Z,23.95
2022-10-20T15:18:15.463Z,24.34
2022-10-20T15:20:48.938Z,24.25
2022-10-20T15:23:29.529Z,23.99
2022-10-20T15:26:15.654Z,24.06
2022-10-20T15:28:52.225Z,24.03
2022-10-20T15:31:26.929Z,24.06
2022-10-20T15:33:57.539Z,23.79
2022-10-20T15:36:41.762Z,23.85
2022-10-20T15:39:13.225Z,23.65
2022-10-20T15:41:42.877Z,23.60
2022-10-20T15:44:22.519Z,23.81
2022-10-20T15:46:56.766Z,23.63
2022-10-20T15:49:26.649Z,23.41
2022-10-20T15:51:55.752Z,23.63
2022-10-20T15:54:24.758Z,23.76
2022-10-20T15:56:53.997Z,23.81
2022-10-20T15:59:23.081Z,23.45
2022-10-20T16:01:52.791Z,23.16
2022-10-20T16:04:32.453Z,23.52
2022-10-20T16:07:03.338Z,23.39
2022-10-20T16:09:32.594Z,23.10
2022-10-20T16:12:01.469Z,23.39
2022-10-20T16:14:30.653Z,23.49
2022-10-20T16:17:02.663Z,23.14
2022-10-20T16:19:50.777Z,23.43
2022-10-20T16:22:19.946Z,23.35
2022-10-20T16:24:49.343Z,23.32
2022-10-20T16:27:18.504Z,23.19
2022-10-20T16:29:49.777Z,23.26
2022-10-20T16:32:19.646Z,23.42
2022-10-20T16:34:48.662Z,23.17
2022-10-20T16:37:17.967Z,23.05
2022-10-20T16:39:47.312Z,22.97
2022-10-20T16:42:16.591Z,22.79
2022-10-20T16:44:46.940Z,23.21
2022-10-20T16:47:16.225Z,22.97
2022-10-20T16:49:45.489Z,23.18
2022-10-20T16:52:14.611Z,23.16
2022-10-20T16:54:44.587Z,23.10
2022-10-20T16:57:14.107Z,23.12
2022-10-20T16:59:44.787Z,23.03
2022-10-20T17:02:14.089Z,22.89
2022-10-20T17:04:43.373Z,22.99
2022-10-20T17:07:13.077Z,22.97
2022-10-20T17:09:42.103Z,23.15
2022-10-20T17:12:11.545Z,23.27
2022-10-20T17:14:41.846Z,23.22
2022-10-20T17:17:11.071Z,22.99
2022-10-20T17:19:42.002Z,23.06
2022-10-20T17:24:45.688Z,22.81
2022-10-20T17:27:15.307Z,23.03
2022-10-20T17:29:44.253Z,22.73
2022-10-20T17:32:15.913Z,22.78
2022-10-20T17:34:47.949Z,22.93
2022-10-20T17:37:18.458Z,22.91
2022-10-20T17:39:48.083Z,22.52
2022-10-20T17:42:16.890Z,22.52
2022-10-20T17:44:46.153Z,22.65
2022-10-20T17:47:15.266Z,22.68
2022-10-20T17:49:44.278Z,22.88
2022-10-20T17:52:13.568Z,22.94
2022-10-20T17:54:42.597Z,22.60
2022-10-20T17:57:11.689Z,22.82
2022-10-20T17:59:52.398Z,22.85
2022-10-20T18:02:27.096Z,22.85
2022-10-20T18:04:56.156Z,22.85
2022-10-20T18:07:25.226Z,22.72
2022-10-20T18:09:55.150Z,22.55
2022-10-20T18:12:24.167Z,22.71
2022-10-20T18:14:53.795Z,22.82
2022-10-20T18:17:23.527Z,22.46
2022-10-20T18:19:53.532Z,22.62
2022-10-20T18:22:22.990Z,22.77
2022-10-20T18:24:51.783Z,22.85
2022-10-20T18:27:21.015Z,22.80
2022-10-20T18:29:49.920Z,22.80
2022-10-20T18:32:19.315Z,22.64
2022-10-20T18:34:48.761Z,22.73
2022-10-20T18:37:20.461Z,22.88
2022-10-20T18:39:49.414Z,22.89
2022-10-20T18:42:18.456Z,22.89
2022-10-20T18:44:47.918Z,22.90
2022-10-20T18:47:16.772Z,22.96
2022-10-20T18:49:45.837Z,22.93
2022-10-20T18:52:14.919Z,22.78
2022-10-20T18:54:44.062Z,22.84
2022-10-20T18:57:13.395Z,22.86
2022-10-20T18:59:42.626Z,22.97
2022-10-20T19:02:12.037Z,22.94
2022-10-20T19:04:41.239Z,22.92
2022-10-20T19:07:10.417Z,22.93
2022-10-20T19:09:39.335Z,22.79
2022-10-20T19:12:10.453Z,22.84
2022-10-20T19:14:39.765Z,22.83
2022-10-20T19:17:11.331Z,22.86
2022-10-20T19:19:42.608Z,22.77
2022-10-20T19:22:12.236Z,22.79
2022-10-20T19:24:41.634Z,22.62
2022-10-20T19:27:27.500Z,22.56
2022-10-20T19:29:56.935Z,22.62
2022-10-20T19:32:26.005Z,22.54
2022-10-20T19:34:55.325Z,22.31
2022-10-20T19:37:25.269Z,22.43
2022-10-20T19:39:55.031Z,22.46
2022-10-20T19:42:24.070Z,22.42
2022-10-20T19:44:53.346Z,22.19
2022-10-20T19:47:23.339Z,22.14
2022-10-20T19:49:52.251Z,21.92
2022-10-20T19:52:21.349Z,22.16
2022-10-20T19:54:50.626Z,22.29
2022-10-20T19:57:19.429Z,22.24
2022-10-20T19:59:48.657Z,22.15
2022-10-20T20:02:17.739Z,21.71
2022-10-20T20:04:46.618Z,21.99
2022-10-20T20:09:50.836Z,22.17
2022-10-20T20:12:20.959Z,22.26
2022-10-20T20:14:50.043Z,21.83
2022-10-20T20:17:19.878Z,21.59
2022-10-20T20:19:48.696Z,21.76
2022-10-20T20:22:17.997Z,21.94
2022-10-20T20:24:46.972Z,21.80
2022-10-20T20:27:16.015Z,21.56
2022-10-20T20:29:45.122Z,21.83
2022-10-20T20:32:14.430Z,21.57
2022-10-20T20:34:43.719Z,21.83
2022-10-20T20:37:12.628Z,21.64
2022-10-20T20:39:41.659Z,21.79
2022-10-20T20:42:10.491Z,21.68
2022-10-20T20:44:39.759Z,21.64
2022-10-20T20:47:08.742Z,21.62
2022-10-20T20:49:37.868Z,21.76
2022-10-20T20:52:06.905Z,21.62
2022-10-20T20:54:35.804Z,21.79
2022-10-20T20:57:05.121Z,21.65
2022-10-20T20:59:34.140Z,21.41
2022-10-20T21:02:02.873Z,21.19
2022-10-20T21:04:32.045Z,21.55
2022-10-20T21:07:02.520Z,21.53
2022-10-20T21:09:32.518Z,21.71
2022-10-20T21:12:02.191Z,21.54
2022-10-20T21:14:32.024Z,21.77
2022-10-20T21:17:02.134Z,21.77
2022-10-20T21:19:31.391Z,21.74
2022-10-20T21:22:02.419Z,21.72
2022-10-20T21:24:31.589Z,21.61
2022-10-20T21:27:01.092Z,21.34
2022-10-20T21:29:30.534Z,21.48
2022-10-20T21:31:59.500Z,21.31
2022-10-20T21:34:29.110Z,21.46
2022-10-20T21:36:58.262Z,21.40
2022-10-20T21:39:27.369Z,21.27
2022-10-20T21:41:56.480Z,21.45
2022-10-20T21:44:25.857Z,21.34
2022-10-20T21:46:54.736Z,21.13
2022-10-20T21:49:28.063Z,21.00
2022-10-20T21:51:58.676Z,21.07
2022-10-20T21:54:30.219Z,21.22
2022-10-20T21:56:59.496Z,21.43
2022-10-20T21:59:31.175Z,21.51
2022-10-20T22:02:02.288Z,21.52
2022-10-20T22:04:32.479Z,21.56
2022-10-20T22:07:01.499Z,21.45
2022-10-20T22:09:31.350Z,21.33
2022-10-20T22:12:01.249Z,21.15
2022-10-20T22:14:31.443Z,21.21
2022-10-20T22:17:01.066Z,21.40
2022-10-20T22:19:31.360Z,21.30
2022-10-20T22:22:00.676Z,21.42
2022-10-20T22:24:31.614Z,21.42
2022-10-20T22:27:00.538Z,21.41
2022-10-20T22:29:29.905Z,21.43
2022-10-20T22:31:58.791Z,21.45
2022-10-20T22:34:27.840Z,21.34
2022-10-20T22:36:57.270Z,21.42
2022-10-20T22:39:26.521Z,21.38
2022-10-20T22:41:55.467Z,21.05
2022-10-20T22:44:24.545Z,20.92
2022-10-20T22:46:53.900Z,20.82
2022-10-20T22:49:22.901Z,21.17
2022-10-20T22:51:51.946Z,21.27
2022-10-20T22:54:20.717Z,21.30
2022-10-20T22:56:53.790Z,21.04
2022-10-20T22:59:22.827Z,21.06
2022-10-20T23:01:53.124Z,20.97
2022-10-20T23:04:22.369Z,21.11
2022-10-20T23:06:51.973Z,21.23
2022-10-20T23:09:21.351Z,21.21
2022-10-20T23:11:50.443Z,21.05
2022-10-20T23:14:19.551Z,20.82
2022-10-20T23:16:48.963Z,20.96
2022-10-20T23:19:18.106Z,20.98
2022-10-20T23:21:47.104Z,20.73
2022-10-20T23:24:16.191Z,20.71
2022-10-20T23:26:45.648Z,20.83
2022-10-20T23:29:14.671Z,20.89
2022-10-20T23:31:43.644Z,21.06
2022-10-20T23:34:13.369Z,20.98
2022-10-20T23:36:42.493Z,20.88
2022-10-20T23:39:11.469Z,20.63
2022-10-20T23:41:40.841Z,20.78
2022-10-20T23:44:10.246Z,20.85
2022-10-20T23:46:39.401Z,20.99
2022-10-20T23:49:08.532Z,20.78
2022-10-20T23:51:37.708Z,20.89
2022-10-20T23:54:06.755Z,20.76
2022-10-20T23:56:35.934Z,20.79
2022-10-20T23:59:04.887Z,20.99
